sensor_id;sensor_type;location;lat;lon;timestamp;temperature;humidity
6496;DHT22;3281;47.658;9.166;2023-07-08T00:00:41;19.00;1.00
6496;DHT22;3281;47.658;9.166;2023-07-08T00:03:09;18.90;1.00
6496;DHT22;3281;47.658;9.166;2023-07-08T00:05:35;18.90;1.00
6496;DHT22;3281;47.658;9.166;2023-07-08T00:08:04;18.90;1.00
6496;DHT22;3281;47.658;9.166;2023-07-08T00:10:31;19.00;1.00
6496;DHT22;3281;47.658;9.166;2023-07-08T00:12:58;19.00;1.00
6496;DHT22;3281;47.658;9.166;2023-07-08T00:15:26;19.00;1.00
6496;DHT22;3281;47.658;9.166;2023-07-08T00:17:53;19.00;1.00
6496;DHT22;3281;47.658;9.166;2023-07-08T00:20:26;19.00;1.00
6496;DHT22;3281;47.658;9.166;2023-07-08T00:22:54;19.00;1.00
6496;DHT22;3281;47.658;9.166;2023-07-08T00:25:22;19.00;1.00
6496;DHT22;3281;47.658;9.166;2023-07-08T00:27:49;18.90;1.00
6496;DHT22;3281;47.658;9.166;2023-07-08T00:30:20;18.90;1.00
6496;DHT22;3281;47.658;9.166;2023-07-08T00:32:47;18.90;1.00
6496;DHT22;3281;47.658;9.166;2023-07-08T00:35:19;18.90;1.00
6496;DHT22;3281;47.658;9.166;2023-07-08T00:37:46;18.90;1.00
6496;DHT22;3281;47.658;9.166;2023-07-08T00:40:15;19.00;1.00
6496;DHT22;3281;47.658;9.166;2023-07-08T00:42:44;19.00;1.00
6496;DHT22;3281;47.658;9.166;2023-07-08T00:45:21;19.00;1.00
6496;DHT22;3281;47.658;9.166;2023-07-08T00:47:49;19.00;1.00
6496;DHT22;3281;47.658;9.166;2023-07-08T00:50:17;19.00;1.00
6496;DHT22;3281;47.658;9.166;2023-07-08T00:52:44;19.00;1.00
6496;DHT22;3281;47.658;9.166;2023-07-08T00:55:11;19.00;1.00
6496;DHT22;3281;47.658;9.166;2023-07-08T00:57:42;19.20;1.00
6496;DHT22;3281;47.658;9.166;2023-07-08T01:00:14;19.10;1.00
6496;DHT22;3281;47.658;9.166;2023-07-08T01:02:45;19.30;1.00
6496;DHT22;3281;47.658;9.166;2023-07-08T01:05:15;19.40;1.00
6496;DHT22;3281;47.658;9.166;2023-07-08T01:07:54;19.40;1.00
6496;DHT22;3281;47.658;9.166;2023-07-08T01:10:27;19.50;1.00
6496;DHT22;3281;47.658;9.166;2023-07-08T01:12:58;19.60;1.00
6496;DHT22;3281;47.658;9.166;2023-07-08T01:15:32;19.60;1.00
6496;DHT22;3281;47.658;9.166;2023-07-08T01:18:02;19.70;1.00
6496;DHT22;3281;47.658;9.166;2023-07-08T01:20:28;19.70;1.00
6496;DHT22;3281;47.658;9.166;2023-07-08T01:22:56;19.70;1.00
6496;DHT22;3281;47.658;9.166;2023-07-08T01:25:22;19.50;1.00
6496;DHT22;3281;47.658;9.166;2023-07-08T01:27:53;19.30;1.00
6496;DHT22;3281;47.658;9.166;2023-07-08T01:30:20;19.30;1.00
6496;DHT22;3281;47.658;9.166;2023-07-08T01:32:50;19.10;1.00
6496;DHT22;3281;47.658;9.166;2023-07-08T01:35:18;19.00;1.00
6496;DHT22;3281;47.658;9.166;2023-07-08T01:37:48;19.00;1.00
6496;DHT22;3281;47.658;9.166;2023-07-08T01:40:27;19.10;1.00
6496;DHT22;3281;47.658;9.166;2023-07-08T01:42:54;19.10;1.00
6496;DHT22;3281;47.658;9.166;2023-07-08T01:45:24;19.20;1.00
6496;DHT22;3281;47.658;9.166;2023-07-08T01:47:54;19.10;1.00
6496;DHT22;3281;47.658;9.166;2023-07-08T01:50:22;19.10;1.00
6496;DHT22;3281;47.658;9.166;2023-07-08T01:52:50;19.00;1.00
6496;DHT22;3281;47.658;9.166;2023-07-08T01:55:21;19.00;1.00
6496;DHT22;3281;47.658;9.166;2023-07-08T01:57:51;19.10;1.00
6496;DHT22;3281;47.658;9.166;2023-07-08T02:00:18;19.10;1.00
6496;DHT22;3281;47.658;9.166;2023-07-08T02:02:45;19.20;1.00
6496;DHT22;3281;47.658;9.166;2023-07-08T02:05:11;19.40;1.00
6496;DHT22;3281;47.658;9.166;2023-07-08T02:07:38;19.40;1.00
6496;DHT22;3281;47.658;9.166;2023-07-08T02:10:05;19.30;1.00
6496;DHT22;3281;47.658;9.166;2023-07-08T02:12:32;19.30;1.00
6496;DHT22;3281;47.658;9.166;2023-07-08T02:15:01;19.40;1.00
6496;DHT22;3281;47.658;9.166;2023-07-08T02:17:28;19.30;1.00
6496;DHT22;3281;47.658;9.166;2023-07-08T02:19:55;19.10;1.00
6496;DHT22;3281;47.658;9.166;2023-07-08T02:22:22;19.10;1.00
6496;DHT22;3281;47.658;9.166;2023-07-08T02:24:49;19.10;1.00
6496;DHT22;3281;47.658;9.166;2023-07-08T02:27:15;19.10;1.00
6496;DHT22;3281;47.658;9.166;2023-07-08T02:29:43;19.20;1.00
6496;DHT22;3281;47.658;9.166;2023-07-08T02:32:11;19.20;1.00
6496;DHT22;3281;47.658;9.166;2023-07-08T02:34:38;19.30;1.00
6496;DHT22;3281;47.658;9.166;2023-07-08T02:37:04;19.20;1.00
6496;DHT22;3281;47.658;9.166;2023-07-08T02:39:31;19.30;1.00
6496;DHT22;3281;47.658;9.166;2023-07-08T02:41:58;19.40;1.00
6496;DHT22;3281;47.658;9.166;2023-07-08T02:44:26;19.30;1.00
6496;DHT22;3281;47.658;9.166;2023-07-08T02:46:53;19.40;1.00
6496;DHT22;3281;47.658;9.166;2023-07-08T02:49:21;19.50;1.00
6496;DHT22;3281;47.658;9.166;2023-07-08T02:51:47;19.60;1.00
6496;DHT22;3281;47.658;9.166;2023-07-08T02:54:14;19.50;1.00
6496;DHT22;3281;47.658;9.166;2023-07-08T02:56:41;19.50;1.00
6496;DHT22;3281;47.658;9.166;2023-07-08T02:59:07;19.60;1.00
6496;DHT22;3281;47.658;9.166;2023-07-08T03:01:34;19.50;1.00
6496;DHT22;3281;47.658;9.166;2023-07-08T03:04:07;19.40;1.00
6496;DHT22;3281;47.658;9.166;2023-07-08T03:06:38;19.50;1.00
6496;DHT22;3281;47.658;9.166;2023-07-08T03:09:05;19.50;1.00
6496;DHT22;3281;47.658;9.166;2023-07-08T03:11:31;19.50;1.00
6496;DHT22;3281;47.658;9.166;2023-07-08T03:13:58;19.50;1.00
6496;DHT22;3281;47.658;9.166;2023-07-08T03:16:25;19.60;1.00
6496;DHT22;3281;47.658;9.166;2023-07-08T03:18:51;19.70;1.00
6496;DHT22;3281;47.658;9.166;2023-07-08T03:21:18;19.80;1.00
6496;DHT22;3281;47.658;9.166;2023-07-08T03:23:47;19.70;1.00
6496;DHT22;3281;47.658;9.166;2023-07-08T03:26:15;19.70;1.00
6496;DHT22;3281;47.658;9.166;2023-07-08T03:28:42;19.70;1.00
6496;DHT22;3281;47.658;9.166;2023-07-08T03:31:09;19.80;1.00
6496;DHT22;3281;47.658;9.166;2023-07-08T03:33:37;19.70;1.00
6496;DHT22;3281;47.658;9.166;2023-07-08T03:36:07;19.60;1.00
6496;DHT22;3281;47.658;9.166;2023-07-08T03:38:35;19.50;1.00
6496;DHT22;3281;47.658;9.166;2023-07-08T03:41:03;19.50;1.00
6496;DHT22;3281;47.658;9.166;2023-07-08T03:43:30;19.50;1.00
6496;DHT22;3281;47.658;9.166;2023-07-08T03:45:56;19.40;1.00
6496;DHT22;3281;47.658;9.166;2023-07-08T03:48:23;19.40;1.00
6496;DHT22;3281;47.658;9.166;2023-07-08T03:50:50;19.60;1.00
6496;DHT22;3281;47.658;9.166;2023-07-08T03:53:17;19.70;1.00
6496;DHT22;3281;47.658;9.166;2023-07-08T03:55:44;19.60;1.00
6496;DHT22;3281;47.658;9.166;2023-07-08T03:58:12;19.60;1.00
6496;DHT22;3281;47.658;9.166;2023-07-08T04:00:38;19.60;1.00
6496;DHT22;3281;47.658;9.166;2023-07-08T04:03:05;19.60;1.00
6496;DHT22;3281;47.658;9.166;2023-07-08T04:05:32;19.50;1.00
6496;DHT22;3281;47.658;9.166;2023-07-08T04:07:58;19.50;1.00
6496;DHT22;3281;47.658;9.166;2023-07-08T04:10:25;19.50;1.00
6496;DHT22;3281;47.658;9.166;2023-07-08T04:12:52;19.50;1.00
6496;DHT22;3281;47.658;9.166;2023-07-08T04:15:20;19.50;1.00
6496;DHT22;3281;47.658;9.166;2023-07-08T04:17:51;19.40;1.00
6496;DHT22;3281;47.658;9.166;2023-07-08T04:20:19;19.40;1.00
6496;DHT22;3281;47.658;9.166;2023-07-08T04:22:46;19.40;1.00
6496;DHT22;3281;47.658;9.166;2023-07-08T04:25:13;19.40;1.00
6496;DHT22;3281;47.658;9.166;2023-07-08T04:27:41;19.40;1.00
6496;DHT22;3281;47.658;9.166;2023-07-08T04:30:19;19.50;1.00
6496;DHT22;3281;47.658;9.166;2023-07-08T04:32:49;19.50;1.00
6496;DHT22;3281;47.658;9.166;2023-07-08T04:35:16;19.50;1.00
6496;DHT22;3281;47.658;9.166;2023-07-08T04:37:43;19.60;1.00
6496;DHT22;3281;47.658;9.166;2023-07-08T04:40:18;19.60;1.00
6496;DHT22;3281;47.658;9.166;2023-07-08T04:42:45;19.50;1.00
6496;DHT22;3281;47.658;9.166;2023-07-08T04:45:14;19.60;1.00
6496;DHT22;3281;47.658;9.166;2023-07-08T04:47:41;19.70;1.00
6496;DHT22;3281;47.658;9.166;2023-07-08T04:50:10;19.60;1.00
6496;DHT22;3281;47.658;9.166;2023-07-08T04:52:37;19.60;1.00
6496;DHT22;3281;47.658;9.166;2023-07-08T04:55:04;19.60;1.00
6496;DHT22;3281;47.658;9.166;2023-07-08T04:57:31;19.60;1.00
6496;DHT22;3281;47.658;9.166;2023-07-08T04:59:57;19.60;1.00
6496;DHT22;3281;47.658;9.166;2023-07-08T05:02:24;19.60;1.00
6496;DHT22;3281;47.658;9.166;2023-07-08T05:04:51;19.70;1.00
6496;DHT22;3281;47.658;9.166;2023-07-08T05:07:19;19.80;1.00
6496;DHT22;3281;47.658;9.166;2023-07-08T05:09:45;19.90;1.00
6496;DHT22;3281;47.658;9.166;2023-07-08T05:12:12;20.10;1.00
6496;DHT22;3281;47.658;9.166;2023-07-08T05:14:39;20.20;1.00
6496;DHT22;3281;47.658;9.166;2023-07-08T05:17:05;20.20;1.00
6496;DHT22;3281;47.658;9.166;2023-07-08T05:19:32;20.30;1.00
6496;DHT22;3281;47.658;9.166;2023-07-08T05:21:59;20.40;1.00
6496;DHT22;3281;47.658;9.166;2023-07-08T05:24:27;20.40;1.00
6496;DHT22;3281;47.658;9.166;2023-07-08T05:26:54;20.40;1.00
6496;DHT22;3281;47.658;9.166;2023-07-08T05:29:20;20.50;1.00
6496;DHT22;3281;47.658;9.166;2023-07-08T05:31:47;20.50;1.00
6496;DHT22;3281;47.658;9.166;2023-07-08T05:34:14;20.50;1.00
6496;DHT22;3281;47.658;9.166;2023-07-08T05:36:41;20.50;1.00
6496;DHT22;3281;47.658;9.166;2023-07-08T05:39:08;20.60;1.00
6496;DHT22;3281;47.658;9.166;2023-07-08T05:41:36;20.50;1.00
6496;DHT22;3281;47.658;9.166;2023-07-08T05:44:03;20.50;1.00
6496;DHT22;3281;47.658;9.166;2023-07-08T05:46:30;20.50;1.00
6496;DHT22;3281;47.658;9.166;2023-07-08T05:48:56;20.50;1.00
6496;DHT22;3281;47.658;9.166;2023-07-08T05:51:23;20.50;1.00
6496;DHT22;3281;47.658;9.166;2023-07-08T05:53:50;20.40;1.00
6496;DHT22;3281;47.658;9.166;2023-07-08T05:56:16;20.40;1.00
6496;DHT22;3281;47.658;9.166;2023-07-08T05:58:44;20.40;1.00
6496;DHT22;3281;47.658;9.166;2023-07-08T06:01:11;20.30;1.00
6496;DHT22;3281;47.658;9.166;2023-07-08T06:03:38;20.30;1.00
6496;DHT22;3281;47.658;9.166;2023-07-08T06:06:04;20.20;1.00
6496;DHT22;3281;47.658;9.166;2023-07-08T06:08:31;20.20;1.00
6496;DHT22;3281;47.658;9.166;2023-07-08T06:10:58;20.20;1.00
6496;DHT22;3281;47.658;9.166;2023-07-08T06:13:26;20.20;1.00
6496;DHT22;3281;47.658;9.166;2023-07-08T06:15:54;20.20;1.00
6496;DHT22;3281;47.658;9.166;2023-07-08T06:18:21;20.20;1.00
6496;DHT22;3281;47.658;9.166;2023-07-08T06:20:51;20.20;1.00
6496;DHT22;3281;47.658;9.166;2023-07-08T06:23:18;20.20;1.00
6496;DHT22;3281;47.658;9.166;2023-07-08T06:25:45;20.10;1.00
6496;DHT22;3281;47.658;9.166;2023-07-08T06:28:12;20.00;1.00
6496;DHT22;3281;47.658;9.166;2023-07-08T06:30:38;20.00;1.00
6496;DHT22;3281;47.658;9.166;2023-07-08T06:33:06;20.00;1.00
6496;DHT22;3281;47.658;9.166;2023-07-08T06:35:33;20.00;1.00
6496;DHT22;3281;47.658;9.166;2023-07-08T06:38:00;20.00;1.00
6496;DHT22;3281;47.658;9.166;2023-07-08T06:40:26;20.00;1.00
6496;DHT22;3281;47.658;9.166;2023-07-08T06:42:53;20.00;1.00
6496;DHT22;3281;47.658;9.166;2023-07-08T06:45:20;20.00;1.00
6496;DHT22;3281;47.658;9.166;2023-07-08T06:47:46;20.00;1.00
6496;DHT22;3281;47.658;9.166;2023-07-08T06:50:14;20.00;1.00
6496;DHT22;3281;47.658;9.166;2023-07-08T06:52:41;20.00;1.00
6496;DHT22;3281;47.658;9.166;2023-07-08T06:55:09;20.10;1.00
6496;DHT22;3281;47.658;9.166;2023-07-08T06:57:37;20.10;1.00
6496;DHT22;3281;47.658;9.166;2023-07-08T07:00:05;20.20;1.00
6496;DHT22;3281;47.658;9.166;2023-07-08T07:02:33;20.20;1.00
6496;DHT22;3281;47.658;9.166;2023-07-08T07:05:00;20.30;1.00
6496;DHT22;3281;47.658;9.166;2023-07-08T07:07:28;20.30;1.00
6496;DHT22;3281;47.658;9.166;2023-07-08T07:09:54;20.30;1.00
6496;DHT22;3281;47.658;9.166;2023-07-08T07:12:21;20.30;1.00
6496;DHT22;3281;47.658;9.166;2023-07-08T07:14:48;20.30;1.00
6496;DHT22;3281;47.658;9.166;2023-07-08T07:17:18;20.40;1.00
6496;DHT22;3281;47.658;9.166;2023-07-08T07:19:44;20.40;1.00
6496;DHT22;3281;47.658;9.166;2023-07-08T07:22:11;20.50;1.00
6496;DHT22;3281;47.658;9.166;2023-07-08T07:24:39;20.50;1.00
6496;DHT22;3281;47.658;9.166;2023-07-08T07:27:06;20.60;1.00
6496;DHT22;3281;47.658;9.166;2023-07-08T07:29:40;20.60;1.00
6496;DHT22;3281;47.658;9.166;2023-07-08T07:32:08;20.60;1.00
6496;DHT22;3281;47.658;9.166;2023-07-08T07:34:35;20.70;1.00
6496;DHT22;3281;47.658;9.166;2023-07-08T07:37:01;20.80;1.00
6496;DHT22;3281;47.658;9.166;2023-07-08T07:39:28;20.80;1.00
6496;DHT22;3281;47.658;9.166;2023-07-08T07:41:56;20.80;1.00
6496;DHT22;3281;47.658;9.166;2023-07-08T07:44:23;20.90;1.00
6496;DHT22;3281;47.658;9.166;2023-07-08T07:46:51;21.00;1.00
6496;DHT22;3281;47.658;9.166;2023-07-08T07:49:18;21.00;1.00
6496;DHT22;3281;47.658;9.166;2023-07-08T07:51:44;21.10;1.00
6496;DHT22;3281;47.658;9.166;2023-07-08T07:54:11;21.10;1.00
6496;DHT22;3281;47.658;9.166;2023-07-08T07:56:38;21.20;1.00
6496;DHT22;3281;47.658;9.166;2023-07-08T07:59:06;21.20;1.00
6496;DHT22;3281;47.658;9.166;2023-07-08T08:01:33;21.30;1.00
6496;DHT22;3281;47.658;9.166;2023-07-08T08:03:59;21.30;1.00
6496;DHT22;3281;47.658;9.166;2023-07-08T08:06:26;21.40;1.00
6496;DHT22;3281;47.658;9.166;2023-07-08T08:08:53;21.30;1.00
6496;DHT22;3281;47.658;9.166;2023-07-08T08:11:19;21.40;1.00
6496;DHT22;3281;47.658;9.166;2023-07-08T08:13:46;21.40;1.00
6496;DHT22;3281;47.658;9.166;2023-07-08T08:16:14;21.40;1.00
6496;DHT22;3281;47.658;9.166;2023-07-08T08:18:41;21.50;1.00
6496;DHT22;3281;47.658;9.166;2023-07-08T08:21:08;21.50;1.00
6496;DHT22;3281;47.658;9.166;2023-07-08T08:23:34;21.60;1.00
6496;DHT22;3281;47.658;9.166;2023-07-08T08:26:01;21.60;1.00
6496;DHT22;3281;47.658;9.166;2023-07-08T08:28:28;21.70;1.00
6496;DHT22;3281;47.658;9.166;2023-07-08T08:30:55;21.70;1.00
6496;DHT22;3281;47.658;9.166;2023-07-08T08:33:23;21.70;1.00
6496;DHT22;3281;47.658;9.166;2023-07-08T08:35:50;21.80;1.00
6496;DHT22;3281;47.658;9.166;2023-07-08T08:38:16;21.80;1.00
6496;DHT22;3281;47.658;9.166;2023-07-08T08:40:43;21.80;1.00
6496;DHT22;3281;47.658;9.166;2023-07-08T08:43:14;21.80;1.00
6496;DHT22;3281;47.658;9.166;2023-07-08T08:45:48;22.00;1.00
6496;DHT22;3281;47.658;9.166;2023-07-08T08:48:18;22.10;1.00
6496;DHT22;3281;47.658;9.166;2023-07-08T08:50:51;22.10;1.00
6496;DHT22;3281;47.658;9.166;2023-07-08T08:53:20;22.20;1.00
6496;DHT22;3281;47.658;9.166;2023-07-08T08:55:51;22.30;1.00
6496;DHT22;3281;47.658;9.166;2023-07-08T08:58:27;22.40;1.00
6496;DHT22;3281;47.658;9.166;2023-07-08T09:00:59;22.50;1.00
6496;DHT22;3281;47.658;9.166;2023-07-08T09:03:34;22.60;1.00
6496;DHT22;3281;47.658;9.166;2023-07-08T09:06:10;22.70;1.00
6496;DHT22;3281;47.658;9.166;2023-07-08T09:08:38;22.80;1.00
6496;DHT22;3281;47.658;9.166;2023-07-08T09:11:13;22.90;1.00
6496;DHT22;3281;47.658;9.166;2023-07-08T09:13:42;22.90;1.00
6496;DHT22;3281;47.658;9.166;2023-07-08T09:16:15;23.00;1.00
6496;DHT22;3281;47.658;9.166;2023-07-08T09:18:53;23.00;1.00
6496;DHT22;3281;47.658;9.166;2023-07-08T09:21:26;23.00;1.00
6496;DHT22;3281;47.658;9.166;2023-07-08T09:23:56;22.90;1.00
6496;DHT22;3281;47.658;9.166;2023-07-08T09:26:27;22.90;1.00
6496;DHT22;3281;47.658;9.166;2023-07-08T09:28:55;22.90;1.00
6496;DHT22;3281;47.658;9.166;2023-07-08T09:31:25;22.90;1.00
6496;DHT22;3281;47.658;9.166;2023-07-08T09:33:52;23.00;1.00
6496;DHT22;3281;47.658;9.166;2023-07-08T09:36:24;23.10;1.00
6496;DHT22;3281;47.658;9.166;2023-07-08T09:38:51;23.10;1.00
6496;DHT22;3281;47.658;9.166;2023-07-08T09:41:32;23.10;1.00
6496;DHT22;3281;47.658;9.166;2023-07-08T09:44:08;23.10;1.00
6496;DHT22;3281;47.658;9.166;2023-07-08T09:46:39;23.20;1.00
6496;DHT22;3281;47.658;9.166;2023-07-08T09:49:24;23.30;1.00
6496;DHT22;3281;47.658;9.166;2023-07-08T09:51:54;23.30;1.00
6496;DHT22;3281;47.658;9.166;2023-07-08T09:54:22;23.40;1.00
6496;DHT22;3281;47.658;9.166;2023-07-08T09:56:57;23.50;1.00
6496;DHT22;3281;47.658;9.166;2023-07-08T09:59:32;23.50;1.00
6496;DHT22;3281;47.658;9.166;2023-07-08T10:02:03;23.70;1.00
6496;DHT22;3281;47.658;9.166;2023-07-08T10:04:36;24.00;1.00
6496;DHT22;3281;47.658;9.166;2023-07-08T10:07:05;24.10;1.00
6496;DHT22;3281;47.658;9.166;2023-07-08T10:09:37;24.20;1.00
6496;DHT22;3281;47.658;9.166;2023-07-08T10:12:05;24.30;1.00
6496;DHT22;3281;47.658;9.166;2023-07-08T10:14:38;24.20;1.00
6496;DHT22;3281;47.658;9.166;2023-07-08T10:17:10;24.00;1.00
6496;DHT22;3281;47.658;9.166;2023-07-08T10:19:40;24.00;1.00
6496;DHT22;3281;47.658;9.166;2023-07-08T10:22:26;23.90;1.00
6496;DHT22;3281;47.658;9.166;2023-07-08T10:25:04;23.90;1.00
6496;DHT22;3281;47.658;9.166;2023-07-08T10:27:36;23.90;1.00
6496;DHT22;3281;47.658;9.166;2023-07-08T10:30:14;23.90;1.00
6496;DHT22;3281;47.658;9.166;2023-07-08T10:32:52;23.90;1.00
6496;DHT22;3281;47.658;9.166;2023-07-08T10:35:24;24.10;1.00
6496;DHT22;3281;47.658;9.166;2023-07-08T10:38:04;24.30;1.00
6496;DHT22;3281;47.658;9.166;2023-07-08T10:40:43;24.80;1.00
6496;DHT22;3281;47.658;9.166;2023-07-08T10:43:31;25.20;1.00
6496;DHT22;3281;47.658;9.166;2023-07-08T10:46:12;25.00;1.00
6496;DHT22;3281;47.658;9.166;2023-07-08T10:48:55;24.90;1.00
6496;DHT22;3281;47.658;9.166;2023-07-08T10:51:31;24.80;1.00
6496;DHT22;3281;47.658;9.166;2023-07-08T10:54:25;24.70;1.00
6496;DHT22;3281;47.658;9.166;2023-07-08T10:57:01;24.70;1.00
6496;DHT22;3281;47.658;9.166;2023-07-08T10:59:41;24.90;1.00
6496;DHT22;3281;47.658;9.166;2023-07-08T11:02:33;24.80;1.00
6496;DHT22;3281;47.658;9.166;2023-07-08T11:05:19;25.20;1.00
6496;DHT22;3281;47.658;9.166;2023-07-08T11:07:53;25.60;1.00
6496;DHT22;3281;47.658;9.166;2023-07-08T11:10:25;25.70;1.00
6496;DHT22;3281;47.658;9.166;2023-07-08T11:12:58;25.50;1.00
6496;DHT22;3281;47.658;9.166;2023-07-08T11:15:31;25.40;1.00
6496;DHT22;3281;47.658;9.166;2023-07-08T11:18:06;25.00;1.00
6496;DHT22;3281;47.658;9.166;2023-07-08T11:20:40;24.90;1.00
6496;DHT22;3281;47.658;9.166;2023-07-08T11:23:19;24.90;1.00
6496;DHT22;3281;47.658;9.166;2023-07-08T11:25:53;24.70;1.00
6496;DHT22;3281;47.658;9.166;2023-07-08T11:28:23;24.40;1.00
6496;DHT22;3281;47.658;9.166;2023-07-08T11:30:51;24.10;1.00
6496;DHT22;3281;47.658;9.166;2023-07-08T11:33:23;24.00;1.00
6496;DHT22;3281;47.658;9.166;2023-07-08T11:35:52;23.90;1.00
6496;DHT22;3281;47.658;9.166;2023-07-08T11:38:21;23.80;1.00
6496;DHT22;3281;47.658;9.166;2023-07-08T11:40:55;23.60;1.00
6496;DHT22;3281;47.658;9.166;2023-07-08T11:43:24;23.60;1.00
6496;DHT22;3281;47.658;9.166;2023-07-08T11:45:54;23.60;1.00
6496;DHT22;3281;47.658;9.166;2023-07-08T11:48:23;23.60;1.00
6496;DHT22;3281;47.658;9.166;2023-07-08T11:50:51;23.60;1.00
6496;DHT22;3281;47.658;9.166;2023-07-08T11:53:34;23.70;1.00
6496;DHT22;3281;47.658;9.166;2023-07-08T11:56:06;23.70;1.00
6496;DHT22;3281;47.658;9.166;2023-07-08T11:59:04;23.70;1.00
6496;DHT22;3281;47.658;9.166;2023-07-08T12:01:37;23.80;1.00
6496;DHT22;3281;47.658;9.166;2023-07-08T12:04:20;23.80;1.00
6496;DHT22;3281;47.658;9.166;2023-07-08T12:07:01;23.90;1.00
6496;DHT22;3281;47.658;9.166;2023-07-08T12:09:36;24.00;1.00
6496;DHT22;3281;47.658;9.166;2023-07-08T12:12:07;24.00;1.00
6496;DHT22;3281;47.658;9.166;2023-07-08T12:14:40;24.10;1.00
6496;DHT22;3281;47.658;9.166;2023-07-08T12:17:10;24.10;1.00
6496;DHT22;3281;47.658;9.166;2023-07-08T12:19:39;24.30;1.00
6496;DHT22;3281;47.658;9.166;2023-07-08T12:22:09;24.30;1.00
6496;DHT22;3281;47.658;9.166;2023-07-08T12:24:37;24.30;1.00
6496;DHT22;3281;47.658;9.166;2023-07-08T12:27:05;24.40;1.00
6496;DHT22;3281;47.658;9.166;2023-07-08T12:29:32;24.40;1.00
6496;DHT22;3281;47.658;9.166;2023-07-08T12:31:59;24.40;1.00
6496;DHT22;3281;47.658;9.166;2023-07-08T12:34:26;24.50;1.00
6496;DHT22;3281;47.658;9.166;2023-07-08T12:36:53;24.70;1.00
6496;DHT22;3281;47.658;9.166;2023-07-08T12:39:21;24.80;1.00
6496;DHT22;3281;47.658;9.166;2023-07-08T12:41:48;24.90;1.00
6496;DHT22;3281;47.658;9.166;2023-07-08T12:44:18;24.90;1.00
6496;DHT22;3281;47.658;9.166;2023-07-08T12:46:46;24.90;1.00
6496;DHT22;3281;47.658;9.166;2023-07-08T12:49:14;24.90;1.00
6496;DHT22;3281;47.658;9.166;2023-07-08T12:51:42;24.90;1.00
6496;DHT22;3281;47.658;9.166;2023-07-08T12:54:10;24.90;1.00
6496;DHT22;3281;47.658;9.166;2023-07-08T12:56:37;25.00;1.00
6496;DHT22;3281;47.658;9.166;2023-07-08T12:59:06;25.00;1.00
6496;DHT22;3281;47.658;9.166;2023-07-08T13:01:35;25.00;1.00
6496;DHT22;3281;47.658;9.166;2023-07-08T13:04:04;25.00;1.00
6496;DHT22;3281;47.658;9.166;2023-07-08T13:06:33;25.00;1.00
6496;DHT22;3281;47.658;9.166;2023-07-08T13:09:07;25.00;1.00
6496;DHT22;3281;47.658;9.166;2023-07-08T13:11:36;25.00;1.00
6496;DHT22;3281;47.658;9.166;2023-07-08T13:14:05;24.90;1.00
6496;DHT22;3281;47.658;9.166;2023-07-08T13:16:35;25.00;1.00
6496;DHT22;3281;47.658;9.166;2023-07-08T13:19:02;25.00;1.00
6496;DHT22;3281;47.658;9.166;2023-07-08T13:21:30;24.90;1.00
6496;DHT22;3281;47.658;9.166;2023-07-08T13:23:58;25.00;1.00
6496;DHT22;3281;47.658;9.166;2023-07-08T13:26:26;25.10;1.00
6496;DHT22;3281;47.658;9.166;2023-07-08T13:29:00;25.20;1.00
6496;DHT22;3281;47.658;9.166;2023-07-08T13:31:32;25.20;1.00
6496;DHT22;3281;47.658;9.166;2023-07-08T13:34:07;25.20;1.00
6496;DHT22;3281;47.658;9.166;2023-07-08T13:36:39;25.20;1.00
6496;DHT22;3281;47.658;9.166;2023-07-08T13:39:08;25.30;1.00
6496;DHT22;3281;47.658;9.166;2023-07-08T13:41:36;25.30;1.00
6496;DHT22;3281;47.658;9.166;2023-07-08T13:44:07;25.30;1.00
6496;DHT22;3281;47.658;9.166;2023-07-08T13:46:36;25.40;1.00
6496;DHT22;3281;47.658;9.166;2023-07-08T13:49:11;25.40;1.00
6496;DHT22;3281;47.658;9.166;2023-07-08T13:51:39;25.40;1.00
6496;DHT22;3281;47.658;9.166;2023-07-08T13:54:14;25.50;1.00
6496;DHT22;3281;47.658;9.166;2023-07-08T13:56:44;25.70;1.00
6496;DHT22;3281;47.658;9.166;2023-07-08T13:59:17;25.70;1.00
6496;DHT22;3281;47.658;9.166;2023-07-08T14:01:44;25.70;1.00
6496;DHT22;3281;47.658;9.166;2023-07-08T14:04:13;25.70;1.00
6496;DHT22;3281;47.658;9.166;2023-07-08T14:06:40;25.70;1.00
6496;DHT22;3281;47.658;9.166;2023-07-08T14:09:12;25.50;1.00
6496;DHT22;3281;47.658;9.166;2023-07-08T14:11:39;25.50;1.00
6496;DHT22;3281;47.658;9.166;2023-07-08T14:14:07;25.60;1.00
6496;DHT22;3281;47.658;9.166;2023-07-08T14:16:37;25.60;1.00
6496;DHT22;3281;47.658;9.166;2023-07-08T14:19:06;25.60;1.00
6496;DHT22;3281;47.658;9.166;2023-07-08T14:21:35;25.60;1.00
6496;DHT22;3281;47.658;9.166;2023-07-08T14:24:10;25.70;1.00
6496;DHT22;3281;47.658;9.166;2023-07-08T14:26:37;25.60;1.00
6496;DHT22;3281;47.658;9.166;2023-07-08T14:29:03;25.60;1.00
6496;DHT22;3281;47.658;9.166;2023-07-08T14:31:30;25.60;1.00
6496;DHT22;3281;47.658;9.166;2023-07-08T14:34:02;25.60;1.00
6496;DHT22;3281;47.658;9.166;2023-07-08T14:36:29;25.60;1.00
6496;DHT22;3281;47.658;9.166;2023-07-08T14:38:57;25.60;1.00
6496;DHT22;3281;47.658;9.166;2023-07-08T14:41:26;25.60;1.00
6496;DHT22;3281;47.658;9.166;2023-07-08T14:43:53;25.50;1.00
6496;DHT22;3281;47.658;9.166;2023-07-08T14:46:20;25.50;1.00
6496;DHT22;3281;47.658;9.166;2023-07-08T14:48:47;25.40;1.00
6496;DHT22;3281;47.658;9.166;2023-07-08T14:51:13;25.40;1.00
6496;DHT22;3281;47.658;9.166;2023-07-08T14:53:40;25.40;1.00
6496;DHT22;3281;47.658;9.166;2023-07-08T14:56:14;25.40;1.00
6496;DHT22;3281;47.658;9.166;2023-07-08T14:58:43;25.40;1.00
6496;DHT22;3281;47.658;9.166;2023-07-08T15:01:17;25.30;1.00
6496;DHT22;3281;47.658;9.166;2023-07-08T15:03:45;25.30;1.00
6496;DHT22;3281;47.658;9.166;2023-07-08T15:06:12;25.30;1.00
6496;DHT22;3281;47.658;9.166;2023-07-08T15:08:39;25.30;1.00
6496;DHT22;3281;47.658;9.166;2023-07-08T15:11:10;25.30;1.00
6496;DHT22;3281;47.658;9.166;2023-07-08T15:13:37;25.20;1.00
6496;DHT22;3281;47.658;9.166;2023-07-08T15:16:05;25.30;1.00
6496;DHT22;3281;47.658;9.166;2023-07-08T15:18:36;25.30;1.00
6496;DHT22;3281;47.658;9.166;2023-07-08T15:21:02;25.40;1.00
6496;DHT22;3281;47.658;9.166;2023-07-08T15:23:29;25.40;1.00
6496;DHT22;3281;47.658;9.166;2023-07-08T15:25:56;25.30;1.00
6496;DHT22;3281;47.658;9.166;2023-07-08T15:28:38;25.30;1.00
6496;DHT22;3281;47.658;9.166;2023-07-08T15:31:08;25.30;1.00
6496;DHT22;3281;47.658;9.166;2023-07-08T15:33:36;25.30;1.00
6496;DHT22;3281;47.658;9.166;2023-07-08T15:36:02;25.30;1.00
6496;DHT22;3281;47.658;9.166;2023-07-08T15:38:29;25.40;1.00
6496;DHT22;3281;47.658;9.166;2023-07-08T15:40:56;25.40;1.00
6496;DHT22;3281;47.658;9.166;2023-07-08T15:43:22;25.40;1.00
6496;DHT22;3281;47.658;9.166;2023-07-08T15:45:50;25.40;1.00
6496;DHT22;3281;47.658;9.166;2023-07-08T15:48:18;25.30;1.00
6496;DHT22;3281;47.658;9.166;2023-07-08T15:50:44;25.40;1.00
6496;DHT22;3281;47.658;9.166;2023-07-08T15:53:13;25.30;1.00
6496;DHT22;3281;47.658;9.166;2023-07-08T15:55:42;25.40;1.00
6496;DHT22;3281;47.658;9.166;2023-07-08T15:58:12;25.30;1.00
6496;DHT22;3281;47.658;9.166;2023-07-08T16:00:41;25.30;1.00
6496;DHT22;3281;47.658;9.166;2023-07-08T16:03:13;25.20;1.00
6496;DHT22;3281;47.658;9.166;2023-07-08T16:05:45;25.20;1.00
6496;DHT22;3281;47.658;9.166;2023-07-08T16:08:12;25.30;1.00
6496;DHT22;3281;47.658;9.166;2023-07-08T16:10:38;25.30;1.00
6496;DHT22;3281;47.658;9.166;2023-07-08T16:13:05;25.30;1.00
6496;DHT22;3281;47.658;9.166;2023-07-08T16:15:34;25.30;1.00
6496;DHT22;3281;47.658;9.166;2023-07-08T16:18:02;25.30;1.00
6496;DHT22;3281;47.658;9.166;2023-07-08T16:20:30;25.30;1.00
6496;DHT22;3281;47.658;9.166;2023-07-08T16:22:58;25.30;1.00
6496;DHT22;3281;47.658;9.166;2023-07-08T16:25:28;25.20;1.00
6496;DHT22;3281;47.658;9.166;2023-07-08T16:27:57;25.20;1.00
6496;DHT22;3281;47.658;9.166;2023-07-08T16:30:24;25.20;1.00